Time;durP1;ratioP1;P1;durP2;ratioP2;P2;SDS_P1;SDS_P2;PMS_P1;PMS_P2;Temp;Humidity;BMP_temperature;BMP_pressure;BME280_temperature;BME280_humidity;BME280_pressure;Samples;Min_cycle;Max_cycle;Signal;HPM_P1;HPM_P2
2023/04/14 00:01:04;;;;;;;5.32;3.10;;;2.90;99.90;;;;;;487254;244;27490;-74
2023/04/14 00:03:06;;;;;;;7.35;3.67;;;2.90;99.90;;;;;;487273;244;27408;-74
2023/04/14 00:05:07;;;;;;;11.05;4.28;;;2.80;99.90;;;;;;487094;244;27434;-74
2023/04/14 00:07:08;;;;;;;7.43;3.00;;;2.70;99.90;;;;;;487256;244;27470;-74
2023/04/14 00:09:09;;;;;;;12.77;3.78;;;2.70;99.90;;;;;;487214;244;27431;-74
2023/04/14 00:11:10;;;;;;;15.82;3.72;;;2.70;99.90;;;;;;487294;244;27543;-74
2023/04/14 00:13:12;;;;;;;7.62;3.40;;;2.50;99.90;;;;;;487287;244;27947;-74
2023/04/14 00:15:13;;;;;;;10.93;4.62;;;2.40;99.90;;;;;;487224;244;27904;-74
2023/04/14 00:17:14;;;;;;;11.52;3.33;;;2.30;99.90;;;;;;487198;244;27968;-74
2023/04/14 00:19:15;;;;;;;7.78;3.78;;;2.30;99.90;;;;;;487251;244;27513;-74
2023/04/14 00:21:17;;;;;;;8.18;3.75;;;2.70;99.90;;;;;;487290;243;27470;-74
2023/04/14 00:23:18;;;;;;;11.80;3.70;;;2.30;99.90;;;;;;487267;244;27400;-74
2023/04/14 00:25:19;;;;;;;5.65;3.85;;;2.30;99.90;;;;;;487208;244;27527;-74
2023/04/14 00:27:20;;;;;;;10.00;3.50;;;2.30;99.90;;;;;;487230;244;27544;-74
2023/04/14 00:29:22;;;;;;;7.43;3.10;;;2.40;99.90;;;;;;487265;244;27439;-74
2023/04/14 00:31:23;;;;;;;5.82;3.30;;;2.30;99.90;;;;;;487307;244;27435;-74
2023/04/14 00:33:24;;;;;;;11.45;4.10;;;2.30;99.90;;;;;;487294;244;27479;-74
2023/04/14 00:35:25;;;;;;;4.68;3.10;;;2.20;99.90;;;;;;487226;244;27523;-75
2023/04/14 00:37:27;;;;;;;8.55;3.40;;;2.30;99.90;;;;;;487252;244;27978;-74
2023/04/14 00:39:28;;;;;;;8.25;3.47;;;2.30;99.90;;;;;;487229;243;27929;-74
2023/04/14 00:41:29;;;;;;;7.15;3.03;;;2.30;99.90;;;;;;487284;243;27903;-74
2023/04/14 00:43:30;;;;;;;5.25;3.28;;;2.30;99.90;;;;;;487255;244;27406;-74
2023/04/14 00:45:32;;;;;;;6.18;3.47;;;2.30;99.90;;;;;;487199;243;27446;-74
2023/04/14 00:47:33;;;;;;;6.10;3.25;;;2.30;99.90;;;;;;487194;244;27482;-74
2023/04/14 00:49:34;;;;;;;9.73;3.60;;;2.30;99.90;;;;;;487208;244;27415;-74
2023/04/14 00:51:36;;;;;;;7.68;3.22;;;2.30;99.90;;;;;;487290;244;27561;-74
2023/04/14 00:53:37;;;;;;;8.45;2.90;;;2.20;99.90;;;;;;487044;244;27383;-74
2023/04/14 00:55:38;;;;;;;7.40;3.40;;;2.30;99.90;;;;;;487141;244;27443;-74
2023/04/14 00:57:39;;;;;;;7.50;3.17;;;2.20;99.90;;;;;;487209;244;27436;-74
2023/04/14 00:59:41;;;;;;;5.43;3.30;;;2.20;99.90;;;;;;487267;244;27499;-74
2023/04/14 01:01:42;;;;;;;6.80;2.80;;;2.10;99.90;;;;;;487280;244;27422;-74
2023/04/14 01:03:43;;;;;;;8.15;2.97;;;2.10;99.90;;;;;;487271;244;27458;-74
2023/04/14 01:05:44;;;;;;;12.88;3.90;;;2.10;99.90;;;;;;487195;244;27434;-74
2023/04/14 01:07:47;;;;;;;6.10;3.05;;;2.10;99.90;;;;;;487223;244;27865;-74
2023/04/14 01:09:47;;;;;;;7.70;3.65;;;2.10;99.90;;;;;;487214;244;27896;-74
2023/04/14 01:11:48;;;;;;;8.02;3.55;;;2.10;99.90;;;;;;487267;244;28048;-74
2023/04/14 01:13:49;;;;;;;14.75;3.90;;;2.00;99.90;;;;;;487261;244;27929;-74
2023/04/14 01:15:51;;;;;;;25.20;4.80;;;2.10;99.90;;;;;;487199;244;27439;-74
2023/04/14 01:17:52;;;;;;;4.57;3.15;;;2.00;99.90;;;;;;487266;244;27404;-74
2023/04/14 01:19:53;;;;;;;7.05;3.00;;;2.00;99.90;;;;;;487258;244;27510;-74
2023/04/14 01:21:54;;;;;;;8.07;3.58;;;1.90;99.90;;;;;;487270;244;27436;-74
2023/04/14 01:23:56;;;;;;;11.45;3.87;;;1.80;99.90;;;;;;487265;243;27415;-74
2023/04/14 01:25:57;;;;;;;6.80;3.65;;;1.80;99.90;;;;;;487218;244;27446;-74
2023/04/14 01:27:58;;;;;;;5.18;3.15;;;1.70;99.90;;;;;;487226;244;27464;-74
2023/04/14 01:30:00;;;;;;;11.57;3.90;;;1.80;99.90;;;;;;487290;244;27446;-74
2023/04/14 01:32:01;;;;;;;6.35;2.97;;;1.50;99.90;;;;;;487253;243;27452;-74
2023/04/14 01:34:02;;;;;;;6.93;3.22;;;1.60;99.90;;;;;;487132;244;27860;-74
2023/04/14 01:36:03;;;;;;;6.65;3.30;;;1.70;99.90;;;;;;487217;244;27913;-75
2023/04/14 01:38:04;;;;;;;6.80;3.25;;;1.70;99.90;;;;;;487277;244;27954;-74
2023/04/14 01:40:10;;;;;;;6.10;3.00;;;1.80;99.90;;;;;;487264;244;27435;-74
2023/04/14 01:42:07;;;;;;;8.27;3.25;;;1.80;99.90;;;;;;486997;244;27466;-74
2023/04/14 01:44:08;;;;;;;7.75;3.28;;;1.80;99.90;;;;;;487258;244;27511;-74
2023/04/14 01:46:11;;;;;;;10.70;3.40;;;1.80;99.90;;;;;;487217;244;27456;-74
2023/04/14 01:48:11;;;;;;;8.82;2.70;;;1.80;99.90;;;;;;487136;244;27379;-74
2023/04/14 01:50:12;;;;;;;5.07;2.67;;;1.70;99.90;;;;;;487215;244;27450;-75
2023/04/14 01:52:13;;;;;;;11.52;3.08;;;1.60;99.90;;;;;;487258;244;27422;-74
2023/04/14 01:54:14;;;;;;;7.37;3.35;;;1.60;99.90;;;;;;487254;244;27407;-74
2023/04/14 01:56:16;;;;;;;8.27;3.10;;;1.50;99.90;;;;;;487236;244;27461;-74
2023/04/14 01:58:17;;;;;;;4.93;2.90;;;1.50;99.90;;;;;;487240;244;27513;-74
2023/04/14 02:00:18;;;;;;;9.80;3.90;;;1.50;99.90;;;;;;487253;244;27916;-74
2023/04/14 02:02:19;;;;;;;11.20;3.97;;;1.30;99.90;;;;;;487237;244;28758;-74
2023/04/14 02:04:21;;;;;;;7.43;3.28;;;1.30;99.90;;;;;;487153;244;27855;-74
2023/04/14 02:06:22;;;;;;;6.78;3.47;;;1.40;99.90;;;;;;487207;244;27502;-74
2023/04/14 02:08:23;;;;;;;6.50;3.50;;;1.50;99.90;;;;;;487268;244;27375;-74
2023/04/14 02:10:24;;;;;;;6.50;3.37;;;1.50;99.90;;;;;;487264;244;27435;-74
2023/04/14 02:12:26;;;;;;;5.12;3.45;;;1.50;99.90;;;;;;487260;243;27396;-74
2023/04/14 02:14:27;;;;;;;8.75;3.22;;;1.50;99.90;;;;;;487205;244;27423;-74
2023/04/14 02:16:28;;;;;;;6.72;3.55;;;1.50;99.90;;;;;;487295;244;27517;-74
2023/04/14 02:18:30;;;;;;;7.93;3.30;;;1.50;99.90;;;;;;487239;244;27530;-74
2023/04/14 02:20:31;;;;;;;9.40;3.95;;;1.50;99.90;;;;;;487206;244;27442;-74
2023/04/14 02:22:32;;;;;;;7.93;3.50;;;1.50;99.90;;;;;;487230;243;27399;-74
2023/04/14 02:24:33;;;;;;;10.40;3.92;;;1.50;99.90;;;;;;487177;244;27581;-74
2023/04/14 02:26:34;;;;;;;4.50;3.10;;;1.60;99.90;;;;;;487273;244;27916;-74
2023/04/14 02:28:36;;;;;;;8.02;3.75;;;1.60;99.90;;;;;;487256;244;27860;-74
2023/04/14 02:30:37;;;;;;;6.85;3.37;;;1.60;99.90;;;;;;487239;244;27917;-74
2023/04/14 02:32:38;;;;;;;4.37;2.60;;;1.70;99.90;;;;;;487212;244;28334;-74
2023/04/14 02:34:39;;;;;;;9.27;3.60;;;1.70;99.90;;;;;;487187;244;27555;-74
2023/04/14 02:36:41;;;;;;;6.37;3.20;;;1.60;99.90;;;;;;487271;244;27427;-74
2023/04/14 02:38:42;;;;;;;12.80;3.58;;;1.70;99.90;;;;;;487264;244;27396;-74
2023/04/14 02:40:43;;;;;;;9.65;3.33;;;1.70;99.90;;;;;;487284;244;27462;-74
2023/04/14 02:42:44;;;;;;;6.85;3.37;;;1.60;99.90;;;;;;487264;244;27403;-74
2023/04/14 02:44:46;;;;;;;8.02;3.75;;;1.50;99.90;;;;;;487177;244;27467;-74
2023/04/14 02:46:47;;;;;;;9.25;4.65;;;1.30;99.90;;;;;;487289;244;27756;-74
2023/04/14 02:48:48;;;;;;;9.73;3.65;;;1.10;99.90;;;;;;487286;244;27490;-74
2023/04/14 02:50:49;;;;;;;9.48;3.70;;;1.00;99.90;;;;;;487223;244;27462;-74
2023/04/14 02:52:51;;;;;;;6.37;3.42;;;1.10;99.90;;;;;;487227;244;27863;-74
2023/04/14 02:54:52;;;;;;;7.70;3.50;;;1.20;99.90;;;;;;487188;243;27990;-74
2023/04/14 02:56:53;;;;;;;8.63;3.85;;;1.20;99.90;;;;;;487267;243;28077;-74
2023/04/14 02:58:54;;;;;;;6.55;3.20;;;1.20;99.90;;;;;;487286;244;27955;-74
2023/04/14 03:00:56;;;;;;;11.07;3.37;;;1.30;99.90;;;;;;487258;244;27420;-75
2023/04/14 03:02:57;;;;;;;7.05;2.92;;;1.30;99.90;;;;;;487249;244;27496;-74
2023/04/14 03:04:58;;;;;;;6.95;3.05;;;1.40;99.90;;;;;;487191;244;27494;-74
2023/04/14 03:06:59;;;;;;;9.15;3.20;;;1.40;99.90;;;;;;487189;244;27535;-74
2023/04/14 03:09:01;;;;;;;6.50;2.95;;;1.50;99.90;;;;;;487222;244;27399;-74
2023/04/14 03:11:02;;;;;;;11.23;2.95;;;1.50;99.90;;;;;;487281;244;27455;-74
2023/04/14 03:13:03;;;;;;;7.37;3.05;;;1.50;99.90;;;;;;487252;244;27470;-74
2023/04/14 03:15:04;;;;;;;5.50;3.15;;;1.40;99.90;;;;;;487183;244;27462;-74
2023/04/14 03:17:06;;;;;;;5.97;3.00;;;1.40;99.90;;;;;;487186;244;27408;-74
2023/04/14 03:19:09;;;;;;;10.73;3.85;;;1.40;99.90;;;;;;487250;244;27931;-74
2023/04/14 03:21:08;;;;;;;15.02;3.30;;;1.20;99.90;;;;;;487172;244;28045;-74
2023/04/14 03:23:11;;;;;;;9.77;3.70;;;1.10;99.90;;;;;;487243;244;27928;-74
2023/04/14 03:25:11;;;;;;;8.30;3.80;;;1.20;99.90;;;;;;487093;243;27946;-74
2023/04/14 03:27:12;;;;;;;6.82;4.45;;;1.20;99.90;;;;;;487267;244;27440;-74
2023/04/14 03:29:14;;;;;;;11.98;4.00;;;1.10;99.90;;;;;;487276;244;27392;-74
2023/04/14 03:31:15;;;;;;;9.52;4.40;;;1.10;99.90;;;;;;487241;243;27427;-74
2023/04/14 03:33:16;;;;;;;7.97;3.95;;;1.20;99.90;;;;;;487258;244;27458;-74
2023/04/14 03:35:17;;;;;;;12.25;3.85;;;1.10;99.90;;;;;;487129;244;27509;-74
2023/04/14 03:37:19;;;;;;;9.07;3.60;;;1.10;99.90;;;;;;487262;244;27462;-73
2023/04/14 03:39:19;;;;;;;9.23;4.25;;;1.10;99.90;;;;;;487255;244;27455;-74
2023/04/14 03:41:21;;;;;;;13.02;3.15;;;1.10;99.90;;;;;;487249;244;27438;-74
2023/04/14 03:43:22;;;;;;;5.75;2.92;;;1.10;99.90;;;;;;487232;244;27879;-74
2023/04/14 03:45:23;;;;;;;6.50;2.80;;;1.10;99.90;;;;;;487146;244;27930;-74
2023/04/14 03:47:27;;;;;;;6.60;3.17;;;1.10;99.90;;;;;;487262;244;28090;-74
2023/04/14 03:49:26;;;;;;;7.00;3.47;;;1.00;99.90;;;;;;487097;244;27874;-74
2023/04/14 03:51:27;;;;;;;5.50;3.30;;;0.90;99.90;;;;;;487249;244;27434;-74
2023/04/14 03:53:28;;;;;;;8.43;3.30;;;0.80;99.90;;;;;;487247;243;27395;-74
2023/04/14 03:55:30;;;;;;;8.00;3.40;;;0.90;99.90;;;;;;487121;244;27458;-74
2023/04/14 03:57:31;;;;;;;11.48;3.75;;;0.90;99.90;;;;;;487274;244;27518;-74
2023/04/14 03:59:32;;;;;;;6.57;3.67;;;0.90;99.90;;;;;;487201;244;27564;-74
2023/04/14 04:01:33;;;;;;;9.45;3.90;;;0.90;99.90;;;;;;487257;243;27476;-74
2023/04/14 04:03:35;;;;;;;7.80;3.65;;;0.90;99.90;;;;;;487231;244;27490;-74
2023/04/14 04:05:37;;;;;;;12.07;4.05;;;1.00;99.90;;;;;;487181;244;27542;-74
2023/04/14 04:07:37;;;;;;;7.93;4.18;;;1.00;99.90;;;;;;487232;244;27553;-74
2023/04/14 04:09:38;;;;;;;6.95;3.12;;;1.00;99.90;;;;;;487272;244;27936;-74
2023/04/14 04:11:39;;;;;;;11.40;3.60;;;1.00;99.90;;;;;;487269;244;27998;-74
2023/04/14 04:13:41;;;;;;;5.70;3.20;;;1.10;99.90;;;;;;487292;244;27889;-74
2023/04/14 04:15:42;;;;;;;9.65;3.22;;;1.10;99.90;;;;;;487183;244;28133;-75
2023/04/14 04:17:43;;;;;;;8.88;3.37;;;1.10;99.90;;;;;;487275;244;27538;-73
2023/04/14 04:19:44;;;;;;;9.80;2.78;;;1.20;99.90;;;;;;487300;244;27478;-74
2023/04/14 04:21:46;;;;;;;6.30;3.58;;;1.20;99.90;;;;;;487272;244;27470;-74
2023/04/14 04:23:47;;;;;;;9.02;3.78;;;1.20;99.90;;;;;;487237;244;27462;-74
2023/04/14 04:25:49;;;;;;;6.57;3.50;;;1.20;99.90;;;;;;487162;244;27418;-74
2023/04/14 04:27:49;;;;;;;6.62;3.53;;;1.10;99.90;;;;;;487298;244;27538;-74
2023/04/14 04:29:51;;;;;;;6.53;2.83;;;1.10;99.90;;;;;;487288;244;27407;-74
2023/04/14 04:31:52;;;;;;;5.20;3.42;;;1.00;99.90;;;;;;487269;244;27510;-74
2023/04/14 04:33:53;;;;;;;7.45;3.70;;;1.00;99.90;;;;;;487245;244;27486;-74
2023/04/14 04:35:55;;;;;;;5.53;3.53;;;1.00;99.90;;;;;;487160;243;27434;-74
2023/04/14 04:37:56;;;;;;;7.35;3.60;;;1.00;99.90;;;;;;487277;244;28006;-74
2023/04/14 04:39:57;;;;;;;9.85;3.70;;;1.00;99.90;;;;;;487284;244;27939;-74
2023/04/14 04:41:58;;;;;;;4.68;3.03;;;1.00;99.90;;;;;;487273;244;27440;-74
2023/04/14 04:44:00;;;;;;;10.10;3.50;;;1.00;99.90;;;;;;487230;244;27523;-74
2023/04/14 04:46:01;;;;;;;7.97;2.85;;;1.00;99.90;;;;;;487182;244;27438;-74
2023/04/14 04:48:03;;;;;;;8.20;3.40;;;0.90;99.90;;;;;;487246;244;27511;-74
2023/04/14 04:50:03;;;;;;;7.68;2.92;;;0.90;99.90;;;;;;487257;244;27403;-74
2023/04/14 04:52:04;;;;;;;6.87;3.47;;;1.00;99.90;;;;;;487260;243;27542;-75
2023/04/14 04:54:06;;;;;;;5.47;2.95;;;1.00;99.90;;;;;;487241;244;27406;-74
2023/04/14 04:56:07;;;;;;;5.50;3.50;;;1.00;99.90;;;;;;487184;244;27514;-74
2023/04/14 04:58:08;;;;;;;3.80;2.75;;;1.10;99.90;;;;;;487300;244;27553;-79
2023/04/14 05:00:10;;;;;;;6.15;3.25;;;1.10;99.90;;;;;;487279;244;27518;-74
2023/04/14 05:02:11;;;;;;;7.87;3.05;;;1.10;99.90;;;;;;487126;244;27995;-74
2023/04/14 05:04:12;;;;;;;4.57;2.62;;;1.20;99.90;;;;;;487232;244;27833;-74
2023/04/14 05:06:13;;;;;;;7.15;3.33;;;1.20;99.90;;;;;;487226;244;27989;-74
2023/04/14 05:08:15;;;;;;;5.82;3.20;;;1.10;99.90;;;;;;487307;244;27942;-74
2023/04/14 05:10:16;;;;;;;9.48;3.25;;;1.20;99.90;;;;;;487281;244;27408;-74
2023/04/14 05:12:17;;;;;;;8.23;3.30;;;1.20;99.90;;;;;;487280;244;27546;-74
2023/04/14 05:14:18;;;;;;;4.10;2.55;;;1.20;99.90;;;;;;487213;244;27474;-74
2023/04/14 05:16:19;;;;;;;6.03;3.00;;;1.20;99.90;;;;;;487187;244;27518;-74
2023/04/14 05:18:21;;;;;;;6.47;3.25;;;1.20;99.90;;;;;;487274;244;27434;-74
2023/04/14 05:20:22;;;;;;;11.80;3.95;;;1.30;99.90;;;;;;487290;244;27442;-75
2023/04/14 05:22:23;;;;;;;8.68;3.70;;;1.30;99.90;;;;;;487277;244;27489;-74
2023/04/14 05:24:24;;;;;;;6.00;3.28;;;1.30;99.90;;;;;;487208;244;27490;-74
2023/04/14 05:26:26;;;;;;;5.97;2.95;;;1.30;99.90;;;;;;487287;244;27546;-74
2023/04/14 05:28:27;;;;;;;11.98;3.50;;;1.30;99.90;;;;;;487298;244;27910;-74
2023/04/14 05:30:28;;;;;;;6.85;3.80;;;1.30;99.90;;;;;;487309;244;27864;-74
2023/04/14 05:32:29;;;;;;;5.75;3.30;;;1.20;99.90;;;;;;487267;244;27922;-74
2023/04/14 05:34:31;;;;;;;10.15;5.07;;;1.20;99.90;;;;;;487092;244;28485;-74
2023/04/14 05:36:32;;;;;;;10.05;3.55;;;1.30;99.90;;;;;;487261;244;27435;-74
2023/04/14 05:38:33;;;;;;;6.15;3.62;;;1.30;99.90;;;;;;487286;244;27458;-75
2023/04/14 05:40:34;;;;;;;7.43;4.32;;;1.40;99.90;;;;;;487260;244;27388;-75
2023/04/14 05:42:36;;;;;;;5.90;3.10;;;1.50;99.90;;;;;;487250;244;27541;-74
2023/04/14 05:44:37;;;;;;;7.12;3.58;;;1.50;99.90;;;;;;487146;244;27414;-74
2023/04/14 05:46:38;;;;;;;7.60;4.10;;;1.60;99.90;;;;;;487252;244;27533;-74
2023/04/14 05:48:39;;;;;;;4.22;3.58;;;1.60;99.90;;;;;;487295;244;27487;-74
2023/04/14 05:50:41;;;;;;;6.57;3.50;;;1.60;99.90;;;;;;487213;244;27399;-74
2023/04/14 05:52:42;;;;;;;6.82;3.67;;;1.60;99.90;;;;;;487237;244;27552;-74
2023/04/14 05:54:43;;;;;;;10.20;4.20;;;1.60;99.90;;;;;;487147;244;28026;-74
2023/04/14 05:56:45;;;;;;;8.60;4.15;;;1.60;99.90;;;;;;487261;244;28009;-74
2023/04/14 05:58:46;;;;;;;10.75;4.60;;;1.70;99.90;;;;;;487272;244;29127;-74
2023/04/14 06:00:47;;;;;;;5.65;3.80;;;1.70;99.90;;;;;;487273;243;27403;-74
2023/04/14 06:02:48;;;;;;;7.35;3.75;;;1.80;99.90;;;;;;487254;244;27429;-74
2023/04/14 06:04:50;;;;;;;9.25;4.10;;;1.90;99.90;;;;;;487140;244;27539;-74
2023/04/14 06:06:51;;;;;;;7.20;3.62;;;1.90;99.90;;;;;;487235;244;27439;-74
2023/04/14 06:08:52;;;;;;;10.80;3.65;;;1.90;99.90;;;;;;487299;244;27455;-74
2023/04/14 06:10:53;;;;;;;10.85;4.25;;;2.00;99.90;;;;;;487286;244;27475;-74
2023/04/14 06:12:55;;;;;;;8.15;3.90;;;2.10;99.90;;;;;;487249;244;27515;-74
2023/04/14 06:14:56;;;;;;;7.32;3.60;;;2.10;99.90;;;;;;487134;244;27410;-74
2023/04/14 06:16:57;;;;;;;11.77;3.72;;;2.20;99.90;;;;;;487247;244;27515;-74
2023/04/14 06:18:58;;;;;;;5.80;3.15;;;2.30;99.90;;;;;;487263;244;27924;-74
2023/04/14 06:21:00;;;;;;;4.05;3.35;;;2.40;99.90;;;;;;487231;243;27890;-74
2023/04/14 06:23:01;;;;;;;4.32;3.40;;;2.40;99.90;;;;;;487246;244;27918;-74
2023/04/14 06:25:02;;;;;;;6.07;2.85;;;2.50;99.90;;;;;;487192;244;27878;-74
2023/04/14 06:27:03;;;;;;;9.27;3.37;;;2.60;99.90;;;;;;487262;244;27422;-74
2023/04/14 06:29:06;;;;;;;5.18;3.00;;;2.70;99.90;;;;;;487261;244;27519;-74
2023/04/14 06:31:06;;;;;;;4.75;3.55;;;2.80;99.90;;;;;;487138;244;27472;-74
2023/04/14 06:33:07;;;;;;;7.85;3.78;;;2.80;99.90;;;;;;487240;244;27529;-74
2023/04/14 06:35:08;;;;;;;6.20;3.05;;;2.90;99.90;;;;;;487166;244;27387;-74
2023/04/14 06:37:10;;;;;;;5.15;2.70;;;2.90;99.90;;;;;;487265;244;27490;-74
2023/04/14 06:39:11;;;;;;;7.15;3.15;;;2.90;99.90;;;;;;487283;244;27446;-74
2023/04/14 06:41:12;;;;;;;11.30;3.78;;;2.90;99.90;;;;;;487256;243;27478;-74
2023/04/14 06:43:13;;;;;;;8.82;3.62;;;3.10;99.90;;;;;;487233;244;27513;-74
2023/04/14 06:45:15;;;;;;;5.82;2.97;;;3.20;99.90;;;;;;487136;244;28554;-74
2023/04/14 06:47:16;;;;;;;7.70;3.58;;;3.30;99.90;;;;;;487282;244;27966;-74
2023/04/14 06:49:18;;;;;;;11.60;3.72;;;3.40;99.90;;;;;;487271;244;28058;-74
2023/04/14 06:51:18;;;;;;;6.28;3.40;;;3.50;99.90;;;;;;487211;244;27835;-74
2023/04/14 06:53:20;;;;;;;8.93;3.97;;;3.60;99.90;;;;;;487286;244;27454;-74
2023/04/14 06:55:21;;;;;;;8.60;3.95;;;3.20;99.90;;;;;;487220;244;27407;-74
2023/04/14 06:57:22;;;;;;;7.75;3.33;;;3.80;99.90;;;;;;487278;244;27407;-74
2023/04/14 06:59:26;;;;;;;6.57;3.45;;;3.90;99.90;;;;;;487209;244;27499;-74
2023/04/14 07:01:25;;;;;;;8.80;3.20;;;3.90;99.90;;;;;;487078;244;27436;-74
2023/04/14 07:03:26;;;;;;;8.30;3.37;;;3.90;99.90;;;;;;487260;244;27450;-74
2023/04/14 07:05:27;;;;;;;6.12;3.10;;;4.00;99.90;;;;;;487178;244;27412;-74
2023/04/14 07:07:28;;;;;;;4.25;2.85;;;4.00;99.90;;;;;;487280;244;27439;-74
2023/04/14 07:09:30;;;;;;;8.48;3.62;;;4.10;99.90;;;;;;487282;244;27545;-74
2023/04/14 07:11:31;;;;;;;4.62;2.67;;;4.30;99.90;;;;;;487265;244;27860;-74
2023/04/14 07:13:33;;;;;;;8.80;2.95;;;4.30;99.90;;;;;;487241;244;27912;-74
2023/04/14 07:15:33;;;;;;;8.00;2.67;;;4.30;99.90;;;;;;487164;244;27820;-74
2023/04/14 07:17:35;;;;;;;8.15;2.95;;;4.40;99.90;;;;;;487273;244;27427;-74
2023/04/14 07:19:36;;;;;;;9.38;2.90;;;4.40;99.90;;;;;;487301;244;27462;-74
2023/04/14 07:21:37;;;;;;;5.10;2.85;;;4.40;99.90;;;;;;487260;244;27478;-74
2023/04/14 07:23:38;;;;;;;4.70;2.60;;;4.40;99.90;;;;;;487266;243;27434;-74
2023/04/14 07:25:40;;;;;;;5.47;2.40;;;4.50;99.90;;;;;;487159;244;27435;-74
2023/04/14 07:27:41;;;;;;;9.95;2.80;;;4.50;99.90;;;;;;487266;244;27407;-74
2023/04/14 07:29:42;;;;;;;9.40;2.90;;;4.50;99.90;;;;;;487246;244;27492;-74
2023/04/14 07:31:43;;;;;;;6.40;2.60;;;4.80;99.90;;;;;;487261;244;27999;-74
2023/04/14 07:33:45;;;;;;;5.32;3.00;;;5.00;99.90;;;;;;487268;244;28026;-74
2023/04/14 07:35:46;;;;;;;4.62;2.17;;;4.90;99.90;;;;;;487218;244;27974;-74
2023/04/14 07:37:47;;;;;;;5.80;2.85;;;4.90;99.90;;;;;;487273;244;27392;-74
2023/04/14 07:39:48;;;;;;;3.72;2.42;;;5.00;99.90;;;;;;487299;244;27438;-74
2023/04/14 07:41:50;;;;;;;5.00;2.37;;;5.00;99.90;;;;;;487267;244;27426;-74
2023/04/14 07:43:54;;;;;;;8.65;2.22;;;5.00;99.90;;;;;;487269;244;27546;-74
2023/04/14 07:45:52;;;;;;;4.40;1.95;;;5.00;99.90;;;;;;487039;244;27485;-74
2023/04/14 07:47:53;;;;;;;8.32;3.12;;;5.00;99.90;;;;;;487307;244;27509;-74
2023/04/14 07:49:55;;;;;;;8.10;2.75;;;5.20;99.90;;;;;;487299;244;27970;-74
2023/04/14 07:51:56;;;;;;;5.18;2.40;;;5.30;99.90;;;;;;487263;244;28629;-74
2023/04/14 07:53:57;;;;;;;5.72;2.50;;;5.60;99.90;;;;;;487287;244;27563;-75
2023/04/14 07:55:58;;;;;;;4.43;2.15;;;5.60;99.90;;;;;;487242;244;27395;-74
2023/04/14 07:58:00;;;;;;;4.80;2.00;;;5.60;99.90;;;;;;487292;244;27541;-74
2023/04/14 08:00:01;;;;;;;5.78;2.53;;;5.60;99.90;;;;;;487299;244;27450;-74
2023/04/14 08:02:02;;;;;;;6.57;2.50;;;5.60;99.90;;;;;;487299;243;27395;-74
2023/04/14 08:04:03;;;;;;;13.98;2.47;;;5.70;99.90;;;;;;487273;244;27553;-74
2023/04/14 08:06:05;;;;;;;4.43;2.42;;;5.80;99.90;;;;;;487277;244;28645;-74
2023/04/14 08:08:06;;;;;;;3.47;2.20;;;5.90;99.90;;;;;;487340;243;27470;-74
2023/04/14 08:10:07;;;;;;;5.32;2.60;;;5.90;99.90;;;;;;487325;244;27542;-74
2023/04/14 08:12:08;;;;;;;4.20;2.60;;;5.90;99.90;;;;;;487322;244;27496;-74
2023/04/14 08:14:10;;;;;;;7.43;2.50;;;6.00;99.90;;;;;;487283;244;27475;-74
2023/04/14 08:16:11;;;;;;;5.30;2.77;;;6.20;99.90;;;;;;487298;243;27458;-74
2023/04/14 08:18:12;;;;;;;6.73;2.00;;;6.40;99.90;;;;;;487333;244;29364;-74
2023/04/14 08:20:13;;;;;;;5.57;2.50;;;6.50;99.90;;;;;;487344;244;29430;-75
2023/04/14 08:22:15;;;;;;;7.40;2.50;;;6.40;99.90;;;;;;487302;244;29290;-74
2023/04/14 08:24:16;;;;;;;4.90;2.83;;;6.50;99.90;;;;;;486933;244;28823;-75
2023/04/14 08:26:17;;;;;;;4.37;2.23;;;6.50;99.90;;;;;;487266;244;27929;-74
2023/04/14 08:28:18;;;;;;;9.20;2.40;;;6.50;99.90;;;;;;487289;244;27841;-74
2023/04/14 08:30:20;;;;;;;6.43;2.53;;;6.50;99.90;;;;;;487305;244;28797;-74
2023/04/14 08:32:21;;;;;;;4.93;2.10;;;6.60;99.90;;;;;;487268;244;27395;-74
2023/04/14 08:34:22;;;;;;;6.63;2.03;;;6.60;99.90;;;;;;487219;244;28027;-74
2023/04/14 08:36:24;;;;;;;6.10;2.93;;;6.70;99.90;;;;;;487285;244;28775;-75
2023/04/14 08:38:25;;;;;;;6.20;2.20;;;6.70;99.90;;;;;;487323;244;28747;-75
2023/04/14 08:40:26;;;;;;;5.35;2.50;;;6.90;99.90;;;;;;487292;244;27990;-75
2023/04/14 08:42:27;;;;;;;5.90;2.00;;;6.80;99.90;;;;;;487289;244;27875;-75
2023/04/14 08:44:28;;;;;;;4.30;1.93;;;6.80;99.90;;;;;;487216;244;28606;-74
2023/04/14 08:46:30;;;;;;;4.07;2.13;;;7.00;99.90;;;;;;487251;244;29255;-75
2023/04/14 08:48:31;;;;;;;6.10;2.13;;;7.10;99.90;;;;;;487306;244;29249;-74
2023/04/14 08:50:32;;;;;;;2.72;1.58;;;7.10;99.90;;;;;;487303;244;29305;-74
2023/04/14 08:52:34;;;;;;;3.43;2.30;;;7.20;99.90;;;;;;487308;244;27395;-74
2023/04/14 08:54:35;;;;;;;12.17;2.23;;;7.30;99.90;;;;;;487220;244;27901;-75
2023/04/14 08:56:37;;;;;;;4.13;2.20;;;7.30;99.90;;;;;;487288;244;27903;-75
2023/04/14 08:58:37;;;;;;;4.40;2.00;;;7.60;99.90;;;;;;487288;244;28024;-75
2023/04/14 09:00:39;;;;;;;3.73;2.07;;;7.70;99.90;;;;;;487275;244;28858;-75
2023/04/14 09:02:40;;;;;;;3.77;1.83;;;7.70;99.90;;;;;;487279;243;28003;-74
2023/04/14 09:04:41;;;;;;;2.60;1.63;;;7.60;99.90;;;;;;487217;244;27899;-74
2023/04/14 09:06:42;;;;;;;7.80;2.30;;;7.60;99.90;;;;;;487258;244;27757;-75
2023/04/14 09:08:44;;;;;;;3.20;1.73;;;7.70;99.90;;;;;;487305;244;27896;-75
2023/04/14 09:10:45;;;;;;;3.50;2.17;;;7.70;99.90;;;;;;487292;244;27930;-75
2023/04/14 09:12:46;;;;;;;6.83;1.80;;;7.70;99.90;;;;;;487280;244;28332;-75
2023/04/14 09:14:47;;;;;;;4.90;1.77;;;7.70;99.90;;;;;;487212;244;28503;-75
2023/04/14 09:16:52;;;;;;;6.27;2.07;;;7.80;99.90;;;;;;487318;244;28688;-75
2023/04/14 09:18:50;;;;;;;3.10;1.73;;;7.80;99.90;;;;;;487076;244;28496;-75
2023/04/14 09:20:51;;;;;;;3.23;1.73;;;7.70;99.90;;;;;;487305;243;28481;-75
2023/04/14 09:22:52;;;;;;;2.40;1.80;;;8.00;99.90;;;;;;487270;244;28338;-75
2023/04/14 09:24:53;;;;;;;3.33;1.50;;;8.00;99.90;;;;;;487225;244;28012;-75
2023/04/14 09:26:55;;;;;;;6.00;1.70;;;8.10;99.90;;;;;;487309;244;27939;-75
2023/04/14 09:28:57;;;;;;;5.33;1.83;;;8.20;99.90;;;;;;483792;244;35975;-75
2023/04/14 09:30:57;;;;;;;7.00;2.10;;;8.20;99.90;;;;;;487251;244;28788;-75
2023/04/14 09:32:59;;;;;;;4.47;1.80;;;8.30;99.90;;;;;;487283;244;27914;-75
2023/04/14 09:35:00;;;;;;;6.60;2.53;;;9.40;99.90;;;;;;487215;244;27687;-75
2023/04/14 09:37:01;;;;;;;3.47;1.97;;;9.00;99.90;;;;;;487309;244;27858;-75
2023/04/14 09:39:02;;;;;;;3.07;1.43;;;9.10;99.90;;;;;;487348;244;27882;-75
2023/04/14 09:41:04;;;;;;;3.63;1.90;;;9.20;99.90;;;;;;487297;244;28005;-75
2023/04/14 09:43:05;;;;;;;3.53;1.93;;;9.30;99.90;;;;;;487285;244;27918;-76
2023/04/14 09:45:07;;;;;;;6.90;2.57;;;9.20;99.90;;;;;;487239;244;27899;-76
2023/04/14 09:47:07;;;;;;;4.30;1.70;;;9.40;99.90;;;;;;487296;244;27909;-75
2023/04/14 09:49:08;;;;;;;2.57;1.97;;;9.50;99.90;;;;;;487366;244;27628;-75
2023/04/14 09:51:12;;;;;;;3.63;1.70;;;9.50;99.90;;;;;;487314;244;28511;-75
2023/04/14 09:53:11;;;;;;;4.43;1.63;;;9.50;99.90;;;;;;487165;244;28038;-75
2023/04/14 09:55:12;;;;;;;2.90;1.60;;;10.00;99.90;;;;;;487228;244;28132;-75
2023/04/14 09:57:14;;;;;;;1.90;1.70;;;9.60;99.90;;;;;;487310;244;28521;-76
2023/04/14 09:59:15;;;;;;;4.93;1.90;;;9.70;99.90;;;;;;487341;244;28420;-75
2023/04/14 10:01:16;;;;;;;3.73;1.80;;;10.00;99.90;;;;;;487302;244;27987;-75
2023/04/14 10:03:18;;;;;;;3.60;1.57;;;9.80;99.90;;;;;;487258;243;27904;-75
2023/04/14 10:05:19;;;;;;;4.47;1.90;;;9.90;99.90;;;;;;487174;244;28000;-76
2023/04/14 10:07:20;;;;;;;2.90;1.50;;;10.00;99.90;;;;;;487293;243;27987;-75
2023/04/14 10:09:25;;;;;;;2.60;1.87;;;9.90;99.90;;;;;;487297;244;28013;-75
2023/04/14 10:11:25;;;;;;;7.90;1.90;;;9.90;99.90;;;;;;487171;244;27762;-75
2023/04/14 10:13:26;;;;;;;12.13;1.87;;;10.00;99.90;;;;;;487259;244;28416;-75
2023/04/14 10:15:27;;;;;;;2.60;1.60;;;10.10;99.90;;;;;;487204;244;28310;-75
2023/04/14 10:17:29;;;;;;;1.97;1.47;;;10.30;99.90;;;;;;487185;244;28655;-75
2023/04/14 10:19:30;;;;;;;2.93;1.53;;;10.00;99.90;;;;;;487253;244;27991;-76
2023/04/14 10:21:31;;;;;;;2.27;1.43;;;10.10;99.90;;;;;;487319;244;27985;-75
2023/04/14 10:23:32;;;;;;;3.37;1.60;;;10.20;99.90;;;;;;487289;243;27936;-75
2023/04/14 10:25:34;;;;;;;3.67;1.90;;;10.10;99.90;;;;;;487173;244;27850;-76
2023/04/14 10:27:35;;;;;;;3.57;1.43;;;10.20;99.90;;;;;;487248;244;27780;-76
2023/04/14 10:29:36;;;;;;;2.93;1.50;;;10.40;99.90;;;;;;487246;244;27944;-75
2023/04/14 10:31:38;;;;;;;3.27;1.50;;;10.20;95.60;;;;;;487314;244;27960;-75
2023/04/14 10:33:39;;;;;;;3.00;1.87;;;10.30;96.70;;;;;;487294;244;28577;-76
2023/04/14 10:35:40;;;;;;;3.40;1.30;;;10.40;99.90;;;;;;487151;244;28584;-76
2023/04/14 10:37:42;;;;;;;3.53;1.40;;;10.40;97.10;;;;;;487271;244;28507;-75